Time;durP1;ratioP1;P1;durP2;ratioP2;P2;SDS_P1;SDS_P2;PMS_P1;PMS_P2;Temp;Humidity;BMP_temperature;BMP_pressure;BME280_temperature;BME280_humidity;BME280_pressure;Samples;Min_cycle;Max_cycle;Signal;HPM_P1;HPM_P2
2022/09/26 00:02:17;;;;;;;6.63;1.85;;;10.90;99.90;;;;;;4973068;28;20055;-67
2022/09/26 00:04:44;;;;;;;4.28;2.33;;;10.90;99.90;;;;;;4952652;29;20117;-66
2022/09/26 00:07:12;;;;;;;6.25;1.80;;;10.90;99.90;;;;;;4937344;29;20114;-67
2022/09/26 00:09:39;;;;;;;5.72;2.35;;;10.90;99.90;;;;;;4935985;29;20055;-66
2022/09/26 00:12:06;;;;;;;4.40;1.63;;;10.90;99.90;;;;;;4954294;29;20055;-67
2022/09/26 00:14:33;;;;;;;3.97;1.85;;;10.90;99.90;;;;;;4937774;29;20166;-68
2022/09/26 00:17:00;;;;;;;4.90;2.22;;;10.90;99.90;;;;;;4936413;29;20062;-68
2022/09/26 00:19:27;;;;;;;4.18;1.73;;;10.90;99.90;;;;;;4969050;28;20105;-68
2022/09/26 00:21:54;;;;;;;5.43;1.90;;;10.90;99.90;;;;;;4973066;28;20075;-67
2022/09/26 00:24:22;;;;;;;5.00;2.22;;;10.90;99.90;;;;;;4972731;28;20054;-68
2022/09/26 00:26:49;;;;;;;5.15;1.83;;;10.90;99.90;;;;;;4974322;28;20046;-66
2022/09/26 00:29:17;;;;;;;6.85;2.25;;;11.00;99.90;;;;;;4976621;28;20050;-68
2022/09/26 00:31:46;;;;;;;4.55;2.30;;;11.00;99.90;;;;;;4958920;28;20063;-68
2022/09/26 00:34:14;;;;;;;5.65;2.30;;;11.00;99.90;;;;;;4959018;28;20057;-67
2022/09/26 00:36:41;;;;;;;4.30;1.80;;;11.10;99.90;;;;;;4959372;28;20137;-67
2022/09/26 00:39:09;;;;;;;3.53;1.65;;;11.10;99.90;;;;;;4975040;28;20523;-67
2022/09/26 00:41:38;;;;;;;5.13;2.13;;;11.80;99.90;;;;;;4958403;28;20105;-67
2022/09/26 00:44:34;;;;;;;3.85;2.22;;;11.10;99.90;;;;;;4976834;28;20070;-67
2022/09/26 00:47:02;;;;;;;8.50;2.20;;;11.10;99.90;;;;;;4958968;28;20046;-68
2022/09/26 00:49:33;;;;;;;3.97;1.67;;;11.10;99.90;;;;;;4958010;28;20094;-66
2022/09/26 00:52:04;;;;;;;6.07;2.03;;;11.20;99.90;;;;;;4957614;28;20055;-67
2022/09/26 00:54:34;;;;;;;3.80;1.90;;;11.10;99.90;;;;;;4975950;28;20058;-67
2022/09/26 00:57:08;;;;;;;5.63;1.90;;;11.10;99.90;;;;;;4976033;28;20050;-67
2022/09/26 00:59:38;;;;;;;6.13;2.20;;;11.10;99.90;;;;;;4975496;28;20047;-67
2022/09/26 01:02:06;;;;;;;4.28;1.90;;;11.10;99.90;;;;;;4976405;28;20458;-67
2022/09/26 01:04:35;;;;;;;3.45;1.88;;;11.10;99.90;;;;;;4975394;28;20058;-66
2022/09/26 01:07:06;;;;;;;5.40;2.00;;;11.10;99.90;;;;;;4958475;28;20137;-66
2022/09/26 01:09:33;;;;;;;7.07;2.42;;;11.10;99.90;;;;;;4958714;28;20128;-66
2022/09/26 01:12:03;;;;;;;7.57;1.90;;;11.20;99.90;;;;;;4958768;28;20110;-67
2022/09/26 01:14:31;;;;;;;3.90;2.00;;;11.10;99.90;;;;;;4958449;28;20459;-66
2022/09/26 01:16:58;;;;;;;3.75;2.15;;;11.20;99.90;;;;;;4976101;28;20060;-66
2022/09/26 01:19:35;;;;;;;6.25;2.00;;;11.20;99.90;;;;;;4975577;28;20051;-66
2022/09/26 01:22:32;;;;;;;3.35;1.80;;;11.20;99.90;;;;;;4975144;28;20054;-67
2022/09/26 01:25:15;;;;;;;5.13;2.10;;;11.20;99.90;;;;;;4976250;28;20490;-67
2022/09/26 01:28:03;;;;;;;3.13;1.90;;;11.20;99.90;;;;;;4974647;28;20054;-67
2022/09/26 01:30:41;;;;;;;3.30;1.75;;;11.20;99.90;;;;;;4975012;28;20475;-67
2022/09/26 01:33:41;;;;;;;5.00;2.13;;;11.20;99.90;;;;;;4975828;28;20046;-67
2022/09/26 01:36:23;;;;;;;7.93;2.35;;;11.20;99.90;;;;;;4958067;28;20495;-67
2022/09/26 01:39:13;;;;;;;3.42;2.00;;;11.20;99.90;;;;;;4953769;28;20054;-67
2022/09/26 01:41:50;;;;;;;7.78;2.50;;;11.20;99.90;;;;;;4955042;29;20055;-67
2022/09/26 01:44:29;;;;;;;4.55;2.30;;;11.20;99.90;;;;;;4956263;29;20055;-67
2022/09/26 01:47:04;;;;;;;7.15;2.00;;;11.20;99.90;;;;;;4938804;29;20065;-67
2022/09/26 01:49:36;;;;;;;6.68;2.28;;;11.20;99.90;;;;;;4938046;29;20058;-68
2022/09/26 01:52:08;;;;;;;4.90;2.30;;;11.20;99.90;;;;;;4939201;29;20051;-67
2022/09/26 01:54:39;;;;;;;4.38;2.25;;;11.10;99.90;;;;;;4955929;29;20562;-66
2022/09/26 01:57:11;;;;;;;4.43;2.45;;;11.20;99.90;;;;;;4937481;29;20054;-67
2022/09/26 01:59:42;;;;;;;6.63;2.40;;;11.20;99.90;;;;;;4938814;29;20105;-67
2022/09/26 02:02:18;;;;;;;5.95;2.35;;;11.20;99.90;;;;;;4954747;29;20055;-68
2022/09/26 02:04:48;;;;;;;6.53;2.50;;;11.20;99.90;;;;;;4938368;29;20062;-68
2022/09/26 02:07:16;;;;;;;;;;;11.20;99.90;;;;;;4939000;29;20511;-67
2022/09/26 02:09:47;;;;;;;4.35;2.50;;;11.10;99.90;;;;;;4937294;29;19993;-67
2022/09/26 02:12:19;;;;;;;5.90;2.55;;;11.10;99.90;;;;;;4938315;29;20051;-66
2022/09/26 02:14:49;;;;;;;4.75;2.10;;;11.10;99.90;;;;;;4938768;29;20063;-67
2022/09/26 02:17:21;;;;;;;10.52;3.00;;;11.10;99.90;;;;;;4959389;28;20055;-67
2022/09/26 02:19:55;;;;;;;4.45;2.38;;;11.10;99.90;;;;;;4974355;28;20062;-67
2022/09/26 02:22:23;;;;;;;6.22;2.63;;;11.10;99.90;;;;;;4975117;28;20093;-68
2022/09/26 02:24:50;;;;;;;4.72;2.90;;;11.10;99.90;;;;;;4956872;28;20058;-67
2022/09/26 02:27:16;;;;;;;4.38;2.58;;;11.10;99.90;;;;;;4957344;28;20113;-66
2022/09/26 02:29:44;;;;;;;4.90;3.17;;;11.10;99.90;;;;;;4973787;28;20054;-66
2022/09/26 02:32:15;;;;;;;9.20;3.15;;;11.00;99.90;;;;;;4956161;28;20057;-67
2022/09/26 02:34:46;;;;;;;6.00;3.00;;;11.00;99.90;;;;;;4974740;28;20054;-68
2022/09/26 02:37:14;;;;;;;6.00;3.10;;;11.00;99.90;;;;;;4973923;28;20050;-67
2022/09/26 02:39:42;;;;;;;7.90;3.20;;;11.00;99.90;;;;;;4956891;28;20057;-67
2022/09/26 02:42:20;;;;;;;4.53;3.10;;;10.90;99.90;;;;;;4974446;28;20113;-67
2022/09/26 02:45:06;;;;;;;4.07;2.70;;;10.90;99.90;;;;;;4973627;28;20054;-67
2022/09/26 02:47:53;;;;;;;10.25;3.67;;;10.90;99.90;;;;;;4974616;28;20418;-66
2022/09/26 02:50:42;;;;;;;8.25;3.47;;;10.90;99.90;;;;;;4956801;28;20537;-67
2022/09/26 02:53:25;;;;;;;7.03;3.50;;;10.80;99.90;;;;;;4955916;28;20105;-67
2022/09/26 02:56:03;;;;;;;9.13;3.65;;;10.80;99.90;;;;;;4956975;28;20050;-67
2022/09/26 02:58:41;;;;;;;5.65;3.05;;;10.80;99.90;;;;;;4973573;28;20134;-66
2022/09/26 03:01:16;;;;;;;7.78;3.30;;;10.80;99.90;;;;;;4973859;28;20054;-66
2022/09/26 03:03:50;;;;;;;5.50;3.45;;;10.80;99.90;;;;;;4956771;28;20064;-66
2022/09/26 03:06:22;;;;;;;7.50;4.15;;;10.80;99.90;;;;;;4956373;28;20090;-66
2022/09/26 03:08:50;;;;;;;7.57;3.80;;;10.80;99.90;;;;;;4956239;28;20105;-67
2022/09/26 03:11:22;;;;;;;10.85;4.38;;;10.80;99.90;;;;;;4973928;28;20055;-67
2022/09/26 03:13:52;;;;;;;8.32;4.00;;;10.70;99.90;;;;;;4973254;28;20187;-67
2022/09/26 03:16:20;;;;;;;7.85;4.28;;;10.70;99.90;;;;;;4957033;28;20117;-67
2022/09/26 03:18:52;;;;;;;8.35;4.32;;;10.70;99.90;;;;;;4973941;28;20083;-66
2022/09/26 03:21:21;;;;;;;8.38;3.40;;;10.70;99.90;;;;;;4973375;28;20086;-67
2022/09/26 03:23:49;;;;;;;8.32;3.83;;;10.80;99.90;;;;;;4956700;28;20080;-67
2022/09/26 03:26:18;;;;;;;8.13;3.38;;;10.70;99.90;;;;;;4956298;28;20160;-66
2022/09/26 03:28:45;;;;;;;5.47;3.58;;;10.80;99.90;;;;;;4973071;28;20047;-67
2022/09/26 03:31:12;;;;;;;8.90;3.97;;;10.80;99.90;;;;;;4956194;28;20055;-66
2022/09/26 03:33:39;;;;;;;5.07;3.42;;;10.80;99.90;;;;;;4955848;28;20592;-66
2022/09/26 03:36:08;;;;;;;8.07;3.97;;;10.80;99.90;;;;;;4956819;28;20487;-66
2022/09/26 03:38:36;;;;;;;6.00;3.78;;;10.80;99.90;;;;;;4956125;28;20106;-66
2022/09/26 03:41:03;;;;;;;9.70;3.60;;;10.80;99.90;;;;;;4955826;28;20054;-67
2022/09/26 03:43:30;;;;;;;9.35;4.43;;;10.80;99.90;;;;;;4973394;28;20054;-67
2022/09/26 03:45:57;;;;;;;9.25;4.28;;;10.80;99.90;;;;;;4974186;28;20058;-67
2022/09/26 03:48:24;;;;;;;7.65;4.00;;;10.80;99.90;;;;;;4955469;28;20047;-66
2022/09/26 03:50:51;;;;;;;7.55;4.10;;;10.80;99.90;;;;;;4956400;28;20055;-67
2022/09/26 03:53:18;;;;;;;10.07;4.05;;;10.70;99.90;;;;;;4973322;28;20110;-67
2022/09/26 03:55:46;;;;;;;5.63;4.15;;;10.80;99.90;;;;;;4955807;28;20050;-67
2022/09/26 03:58:13;;;;;;;10.93;4.43;;;10.80;99.90;;;;;;4956126;28;20084;-66
2022/09/26 04:00:40;;;;;;;7.43;4.10;;;10.70;99.90;;;;;;4973601;28;20129;-66
2022/09/26 04:03:06;;;;;;;6.97;3.55;;;10.70;99.90;;;;;;4975426;28;20502;-67
2022/09/26 04:05:33;;;;;;;6.50;4.03;;;10.80;99.90;;;;;;4960179;28;20055;-67
2022/09/26 04:08:04;;;;;;;8.80;4.28;;;10.80;99.90;;;;;;4977126;28;20105;-68
2022/09/26 04:10:32;;;;;;;6.40;4.18;;;10.80;99.90;;;;;;4976313;28;20043;-66
2022/09/26 04:13:00;;;;;;;9.02;4.15;;;10.80;99.90;;;;;;4977388;28;20050;-67
2022/09/26 04:15:27;;;;;;;7.22;4.10;;;10.80;99.90;;;;;;4977242;28;20059;-67
2022/09/26 04:17:55;;;;;;;8.98;4.40;;;10.80;99.90;;;;;;4975767;28;20571;-67
2022/09/26 04:20:22;;;;;;;6.35;4.32;;;10.80;99.90;;;;;;4976856;28;20057;-65
2022/09/26 04:22:49;;;;;;;10.35;4.68;;;10.80;99.90;;;;;;4958906;28;20058;-66
2022/09/26 04:25:16;;;;;;;8.95;4.68;;;10.80;99.90;;;;;;4959698;28;20581;-66
2022/09/26 04:27:42;;;;;;;6.82;3.95;;;10.80;99.90;;;;;;4960109;28;20133;-66
2022/09/26 04:30:12;;;;;;;7.10;3.92;;;10.80;99.90;;;;;;4974907;28;20564;-67
2022/09/26 04:32:39;;;;;;;9.43;3.88;;;10.80;99.90;;;;;;4977034;28;20492;-67
2022/09/26 04:35:06;;;;;;;8.00;4.05;;;10.80;99.90;;;;;;4959677;28;20494;-67
2022/09/26 04:37:35;;;;;;;5.70;3.47;;;10.70;99.90;;;;;;4976459;28;20384;-67
2022/09/26 04:40:03;;;;;;;8.00;4.07;;;10.80;99.90;;;;;;4976637;28;20105;-66
2022/09/26 04:42:33;;;;;;;9.98;4.20;;;10.70;99.90;;;;;;4976791;28;20051;-66
2022/09/26 04:44:59;;;;;;;12.75;4.65;;;10.80;99.90;;;;;;4975877;28;20051;-66
2022/09/26 04:47:28;;;;;;;6.18;3.70;;;10.70;99.90;;;;;;4959633;28;20541;-68
2022/09/26 04:49:55;;;;;;;7.15;4.18;;;10.70;99.90;;;;;;4958563;28;20061;-67
2022/09/26 04:52:22;;;;;;;5.95;4.10;;;10.70;99.90;;;;;;4974211;28;20062;-68
2022/09/26 04:54:48;;;;;;;6.28;4.03;;;10.70;99.90;;;;;;4976296;28;20121;-66
2022/09/26 04:57:15;;;;;;;7.38;4.53;;;10.70;99.90;;;;;;4975732;28;20057;-67
2022/09/26 04:59:42;;;;;;;8.80;4.38;;;10.70;99.90;;;;;;4957388;28;20062;-67
2022/09/26 05:02:09;;;;;;;8.98;5.20;;;10.70;99.90;;;;;;4958885;28;20101;-66
2022/09/26 05:04:37;;;;;;;9.23;5.22;;;10.70;99.90;;;;;;4958789;28;20055;-67
2022/09/26 05:07:04;;;;;;;6.88;4.30;;;10.70;99.90;;;;;;4974994;28;20506;-66
2022/09/26 05:09:31;;;;;;;11.65;5.10;;;10.60;99.90;;;;;;4976014;28;20406;-66
2022/09/26 05:11:58;;;;;;;9.77;4.93;;;10.60;99.90;;;;;;4975511;28;20442;-67
2022/09/26 05:14:25;;;;;;;9.05;4.80;;;10.60;99.90;;;;;;4958676;28;20105;-65
2022/09/26 05:16:52;;;;;;;10.30;4.85;;;10.60;99.90;;;;;;4959017;28;20058;-66
2022/09/26 05:19:20;;;;;;;10.93;5.10;;;10.60;99.90;;;;;;4957839;28;20145;-64
2022/09/26 05:21:48;;;;;;;7.00;5.18;;;10.60;99.90;;;;;;4976000;28;20043;-66
2022/09/26 05:27:00;;;;;;;8.35;5.07;;;10.60;99.90;;;;;;4957706;28;20440;-65
2022/09/26 05:29:27;;;;;;;10.80;5.55;;;10.60;99.90;;;;;;4954610;29;20059;-67
2022/09/26 05:31:55;;;;;;;11.60;5.75;;;10.60;99.90;;;;;;4955777;29;20491;-66
2022/09/26 05:34:24;;;;;;;6.82;5.45;;;10.50;99.90;;;;;;4955377;29;20051;-66
2022/09/26 05:36:54;;;;;;;9.52;5.20;;;10.50;99.90;;;;;;4938756;29;20141;-67
2022/09/26 05:42:07;;;;;;;10.85;5.50;;;10.50;99.90;;;;;;4953963;29;20098;-67
2022/09/26 05:44:34;;;;;;;8.68;5.60;;;10.50;99.90;;;;;;4957203;28;20051;-66
2022/09/26 05:47:01;;;;;;;7.03;4.88;;;10.50;99.90;;;;;;4957236;28;20050;-67
2022/09/26 05:49:28;;;;;;;9.60;5.95;;;10.50;99.90;;;;;;4975174;28;20058;-66
2022/09/26 05:51:56;;;;;;;9.77;5.70;;;10.40;99.90;;;;;;4957926;28;20053;-66
2022/09/26 05:54:23;;;;;;;10.45;6.32;;;10.50;99.90;;;;;;4974391;28;20050;-65
2022/09/26 05:56:50;;;;;;;12.57;5.82;;;10.50;99.90;;;;;;4975193;28;20054;-66
2022/09/26 05:59:17;;;;;;;7.38;5.88;;;10.40;99.90;;;;;;4938551;29;20058;-65
2022/09/26 06:01:45;;;;;;;10.20;6.35;;;10.50;99.90;;;;;;4937993;29;20062;-66
2022/09/26 06:04:12;;;;;;;10.40;5.43;;;10.40;99.90;;;;;;4938913;29;20086;-66
2022/09/26 06:06:43;;;;;;;8.10;5.13;;;10.40;99.90;;;;;;4938236;29;20059;-66
2022/09/26 06:09:11;;;;;;;10.05;4.85;;;10.40;99.90;;;;;;4954738;29;20570;-66
2022/09/26 06:11:38;;;;;;;10.45;5.90;;;10.40;99.90;;;;;;4941094;28;20434;-67
2022/09/26 06:14:07;;;;;;;8.00;5.47;;;10.40;99.90;;;;;;4941356;28;20321;-67
2022/09/26 06:16:33;;;;;;;11.27;5.85;;;10.40;99.90;;;;;;4949921;28;20307;-67
2022/09/26 06:19:01;;;;;;;12.57;5.80;;;10.40;99.90;;;;;;4964543;28;20053;-68
2022/09/26 06:21:28;;;;;;;9.45;5.60;;;10.40;99.90;;;;;;4978997;28;20047;-67
2022/09/26 06:23:55;;;;;;;10.23;5.13;;;10.40;99.90;;;;;;4962932;28;20055;-68
2022/09/26 06:26:27;;;;;;;8.88;5.53;;;10.30;99.90;;;;;;4948843;28;20133;-67
2022/09/26 06:28:56;;;;;;;6.15;5.05;;;10.40;99.90;;;;;;4968827;28;20059;-67
2022/09/26 06:31:24;;;;;;;11.90;5.70;;;10.40;99.90;;;;;;4951636;28;20145;-66
2022/09/26 06:33:53;;;;;;;10.73;5.75;;;10.40;99.90;;;;;;4964718;28;20073;-67
2022/09/26 06:36:21;;;;;;;9.35;4.90;;;10.30;99.90;;;;;;4949973;28;20491;-66
2022/09/26 06:38:48;;;;;;;7.97;5.03;;;10.30;99.90;;;;;;4948836;28;20087;-66
2022/09/26 06:41:15;;;;;;;8.68;4.93;;;10.40;99.90;;;;;;4970359;28;20403;-66
2022/09/26 06:43:44;;;;;;;9.43;5.20;;;10.30;99.90;;;;;;4946945;28;20054;-67
2022/09/26 06:46:12;;;;;;;7.65;5.20;;;10.40;99.90;;;;;;4972871;28;20043;-66
2022/09/26 06:48:39;;;;;;;9.20;5.00;;;10.30;99.90;;;;;;4961901;28;20050;-67
2022/09/26 06:51:06;;;;;;;9.07;4.85;;;10.30;99.90;;;;;;4963841;28;20110;-67
2022/09/26 06:53:34;;;;;;;10.02;5.25;;;10.30;99.90;;;;;;4964489;28;20050;-66
2022/09/26 06:56:02;;;;;;;6.90;4.47;;;10.30;99.90;;;;;;4945688;28;20055;-66
2022/09/26 06:58:29;;;;;;;9.70;5.25;;;10.30;99.90;;;;;;4966525;28;20043;-67
2022/09/26 07:00:59;;;;;;;9.98;5.40;;;10.30;99.90;;;;;;4963700;28;20051;-66
2022/09/26 07:03:28;;;;;;;7.28;5.63;;;10.30;99.90;;;;;;4946892;28;20047;-66
2022/09/26 07:05:56;;;;;;;11.45;6.43;;;10.30;99.90;;;;;;4964298;28;20377;-66
2022/09/26 07:08:24;;;;;;;9.15;5.75;;;10.30;99.90;;;;;;4954826;28;20054;-67
2022/09/26 07:10:51;;;;;;;8.88;5.70;;;10.30;99.90;;;;;;4946609;28;20050;-66
2022/09/26 07:13:18;;;;;;;9.95;5.10;;;10.40;99.90;;;;;;4966547;28;20042;-66
2022/09/26 07:15:46;;;;;;;10.25;5.07;;;10.30;99.90;;;;;;4948546;28;20054;-67
2022/09/26 07:18:16;;;;;;;10.30;5.18;;;10.40;99.90;;;;;;4952779;28;20514;-67
2022/09/26 07:20:46;;;;;;;9.43;5.47;;;10.40;99.90;;;;;;4964016;28;20457;-65
2022/09/26 07:23:15;;;;;;;8.95;4.93;;;10.40;99.90;;;;;;4949241;28;20065;-67
2022/09/26 07:25:44;;;;;;;8.95;5.15;;;10.50;99.90;;;;;;4951380;28;20059;-67
2022/09/26 07:28:12;;;;;;;12.50;4.43;;;10.50;99.90;;;;;;4948056;28;20392;-67
2022/09/26 07:30:39;;;;;;;8.15;4.90;;;10.40;99.90;;;;;;4949498;28;20055;-67
2022/09/26 07:33:06;;;;;;;7.97;4.72;;;10.50;99.90;;;;;;4966967;28;20047;-67
2022/09/26 07:35:36;;;;;;;8.02;5.13;;;10.50;99.90;;;;;;4948587;28;20055;-66
2022/09/26 07:38:03;;;;;;;7.80;4.32;;;10.50;99.90;;;;;;4967337;28;20050;-66
2022/09/26 07:40:31;;;;;;;6.55;3.95;;;10.40;99.90;;;;;;4949914;28;20050;-67
2022/09/26 07:42:59;;;;;;;8.82;5.00;;;10.40;99.90;;;;;;4974638;28;20050;-66
2022/09/26 07:50:57;;;;;;;6.68;3.78;;;10.50;99.90;;;;;;4954096;28;20367;-66
2022/09/26 07:53:24;;;;;;;5.13;3.40;;;10.60;99.90;;;;;;4969988;28;20090;-66
2022/09/26 07:58:43;;;;;;;9.10;3.70;;;10.80;99.90;;;;;;4956201;28;20080;-66
2022/09/26 08:01:12;;;;;;;11.32;3.72;;;10.90;99.90;;;;;;4966790;28;20051;-66
2022/09/26 08:03:39;;;;;;;10.52;3.85;;;10.90;99.90;;;;;;4954060;28;20376;-66
2022/09/26 08:06:07;;;;;;;7.55;3.10;;;11.00;99.90;;;;;;4968604;28;20058;-66
2022/09/26 08:08:35;;;;;;;5.28;3.25;;;11.00;99.90;;;;;;4947902;28;20062;-67
2022/09/26 08:11:03;;;;;;;6.70;3.35;;;11.10;99.90;;;;;;4944067;29;20051;-68
2022/09/26 08:13:32;;;;;;;7.50;3.17;;;11.10;99.90;;;;;;4949575;28;20058;-66
2022/09/26 08:16:03;;;;;;;5.95;3.08;;;11.20;99.90;;;;;;4947747;28;20078;-65
2022/09/26 08:18:32;;;;;;;4.75;2.67;;;11.20;99.90;;;;;;4948907;29;20102;-66
2022/09/26 08:20:59;;;;;;;8.18;3.50;;;11.20;99.90;;;;;;4964294;28;20051;-66
2022/09/26 08:23:28;;;;;;;6.35;2.78;;;11.30;99.90;;;;;;4947640;29;20126;-66
2022/09/26 08:25:55;;;;;;;5.47;3.38;;;11.30;99.90;;;;;;4954929;29;20118;-65
2022/09/26 08:28:22;;;;;;;5.80;2.88;;;11.30;99.90;;;;;;4947955;28;20563;-67
2022/09/26 08:30:49;;;;;;;5.22;2.92;;;11.30;99.90;;;;;;4949813;28;20047;-65
2022/09/26 08:33:17;;;;;;;4.85;3.10;;;11.40;99.90;;;;;;4949160;29;20051;-65
2022/09/26 08:35:47;;;;;;;7.40;2.85;;;11.30;99.90;;;;;;4948959;28;20055;-66
2022/09/26 08:38:14;;;;;;;8.07;2.70;;;11.30;99.90;;;;;;4949328;28;20067;-66
2022/09/26 08:40:53;;;;;;;3.78;2.55;;;11.30;99.90;;;;;;4950103;29;20397;-67
2022/09/26 08:43:36;;;;;;;5.07;3.08;;;11.30;99.90;;;;;;4949119;28;20059;-67
2022/09/26 08:49:22;;;;;;;6.38;3.35;;;11.30;99.90;;;;;;4948340;28;20047;-68
2022/09/26 08:51:51;;;;;;;5.28;3.05;;;11.40;99.90;;;;;;4944825;29;20054;-68
2022/09/26 08:54:20;;;;;;;6.88;3.20;;;11.40;99.90;;;;;;4949510;28;20052;-67
2022/09/26 08:56:52;;;;;;;7.70;3.75;;;11.40;99.90;;;;;;4950677;29;20059;-68
2022/09/26 08:59:25;;;;;;;7.00;3.47;;;11.40;99.90;;;;;;4952525;28;20059;-67
2022/09/26 09:01:55;;;;;;;4.65;3.42;;;11.40;99.90;;;;;;4952617;29;20051;-67
2022/09/26 09:04:26;;;;;;;8.13;3.60;;;11.40;99.90;;;;;;4947704;29;20139;-67
2022/09/26 09:06:58;;;;;;;5.75;3.50;;;11.50;99.90;;;;;;4949933;29;20083;-67
2022/09/26 09:09:25;;;;;;;5.88;3.50;;;11.50;99.90;;;;;;4952151;29;20063;-68
2022/09/26 09:12:06;;;;;;;8.23;3.70;;;11.50;99.90;;;;;;4946583;29;20043;-69
2022/09/26 09:14:55;;;;;;;6.10;3.00;;;11.50;99.90;;;;;;4954187;29;20122;-67
2022/09/26 09:17:28;;;;;;;5.90;3.60;;;11.60;99.90;;;;;;4947437;28;20062;-68
2022/09/26 09:20:02;;;;;;;12.30;3.70;;;11.70;99.90;;;;;;4948489;28;20051;-67
2022/09/26 09:22:59;;;;;;;6.80;2.92;;;11.70;99.90;;;;;;4951066;28;20139;-67
2022/09/26 09:25:31;;;;;;;7.05;3.40;;;11.80;99.90;;;;;;4953586;28;20044;-69
2022/09/26 09:28:19;;;;;;;6.22;3.25;;;11.80;99.90;;;;;;4948458;29;20133;-68
2022/09/26 09:30:50;;;;;;;5.15;3.30;;;11.80;99.90;;;;;;4948306;28;20072;-69
2022/09/26 09:33:21;;;;;;;6.05;2.95;;;11.70;99.90;;;;;;4947915;28;20089;-67
2022/09/26 09:35:51;;;;;;;4.35;2.88;;;11.80;99.90;;;;;;4950176;29;20047;-66
2022/09/26 09:38:22;;;;;;;7.38;2.97;;;11.80;99.90;;;;;;4946509;29;20058;-67
2022/09/26 09:40:59;;;;;;;4.15;2.67;;;11.80;99.90;;;;;;4948180;28;20051;-68
2022/09/26 09:43:35;;;;;;;7.75;3.25;;;11.80;99.90;;;;;;4948952;29;20047;-67
2022/09/26 09:46:04;;;;;;;4.85;3.10;;;11.80;99.90;;;;;;4946609;29;20059;-66
2022/09/26 09:48:31;;;;;;;5.55;2.97;;;11.80;99.90;;;;;;4948947;29;20062;-67
2022/09/26 09:51:12;;;;;;;6.55;3.40;;;11.80;99.90;;;;;;4949139;29;20054;-66
2022/09/26 09:54:15;;;;;;;5.30;3.30;;;11.90;99.90;;;;;;4948185;29;20384;-65
2022/09/26 09:56:54;;;;;;;4.32;2.85;;;11.80;99.90;;;;;;4946578;28;20514;-66
2022/09/26 09:59:46;;;;;;;7.18;3.65;;;11.80;99.90;;;;;;4945705;28;20119;-68
2022/09/26 10:02:20;;;;;;;12.35;3.97;;;11.80;99.90;;;;;;4945443;28;20063;-68
2022/09/26 10:04:56;;;;;;;7.60;3.60;;;11.80;99.90;;;;;;4951151;28;20052;-66
2022/09/26 10:07:23;;;;;;;7.15;4.05;;;11.80;99.90;;;;;;4945986;28;20051;-67
2022/09/26 10:09:50;;;;;;;11.07;4.38;;;11.80;99.90;;;;;;4971783;28;20055;-67
2022/09/26 10:12:20;;;;;;;5.85;3.97;;;11.70;99.90;;;;;;4949049;28;20054;-67
2022/09/26 10:14:53;;;;;;;9.85;4.10;;;11.70;99.90;;;;;;4952302;28;20411;-68
2022/09/26 10:17:21;;;;;;;6.60;4.47;;;11.70;99.90;;;;;;4970092;28;20047;-67
2022/09/26 10:19:49;;;;;;;6.25;4.00;;;11.70;99.90;;;;;;4951334;28;20503;-67
2022/09/26 10:22:23;;;;;;;6.70;4.05;;;11.80;99.90;;;;;;4965133;28;20058;-67
2022/09/26 10:24:51;;;;;;;7.05;3.78;;;11.80;99.90;;;;;;4952645;28;20527;-67
2022/09/26 10:27:24;;;;;;;7.50;3.80;;;11.80;99.90;;;;;;4965419;28;20097;-67
2022/09/26 10:29:58;;;;;;;7.20;4.22;;;11.90;99.90;;;;;;4972042;28;20447;-67
2022/09/26 10:32:25;;;;;;;6.78;4.18;;;11.80;99.90;;;;;;4944280;28;20566;-67
2022/09/26 10:35:17;;;;;;;10.35;4.50;;;11.80;99.90;;;;;;4948338;28;20066;-66
2022/09/26 10:37:48;;;;;;;10.98;4.45;;;11.70;99.90;;;;;;4963583;28;20406;-67
2022/09/26 10:43:30;;;;;;;8.70;5.00;;;11.60;99.90;;;;;;4968236;28;20049;-68
2022/09/26 10:46:04;;;;;;;7.55;4.35;;;11.60;99.90;;;;;;4961564;28;20541;-67
2022/09/26 10:48:42;;;;;;;12.75;5.05;;;11.60;99.90;;;;;;4966628;28;20109;-67
2022/09/26 10:51:10;;;;;;;13.98;5.35;;;11.50;99.90;;;;;;4947613;28;20047;-66
2022/09/26 10:53:40;;;;;;;7.65;4.45;;;11.50;99.90;;;;;;4949531;28;20526;-67
2022/09/26 10:56:11;;;;;;;7.28;4.88;;;11.50;99.90;;;;;;4967132;28;20074;-66
2022/09/26 10:58:43;;;;;;;9.50;5.47;;;11.50;99.90;;;;;;4970950;28;20050;-67
2022/09/26 11:01:22;;;;;;;9.02;5.35;;;11.50;99.90;;;;;;4964151;28;20043;-66
2022/09/26 11:03:50;;;;;;;9.50;4.80;;;11.50;99.90;;;;;;4951701;28;20046;-66
2022/09/26 11:06:27;;;;;;;7.80;4.57;;;11.50;99.90;;;;;;4945980;28;20144;-67
2022/09/26 11:09:01;;;;;;;7.05;4.75;;;11.50;99.90;;;;;;4945651;28;20055;-66
2022/09/26 11:11:32;;;;;;;9.88;4.85;;;11.50;99.90;;;;;;4965439;28;20053;-66
2022/09/26 11:14:02;;;;;;;;;;;11.40;99.90;;;;;;4966109;28;20051;-66
2022/09/26 11:16:38;;;;;;;5.88;4.28;;;11.40;99.90;;;;;;4946550;28;19922;-67
2022/09/26 11:19:13;;;;;;;6.18;4.45;;;11.30;99.90;;;;;;4951660;28;20055;-67
2022/09/26 11:21:45;;;;;;;8.07;5.15;;;11.30;99.90;;;;;;4949147;28;20062;-66
2022/09/26 11:24:18;;;;;;;6.18;4.70;;;11.30;99.90;;;;;;4967853;28;20103;-67
2022/09/26 11:26:55;;;;;;;7.68;4.53;;;11.40;99.90;;;;;;4951497;28;20055;-66
2022/09/26 11:29:36;;;;;;;8.68;5.15;;;11.40;99.90;;;;;;4964336;28;20416;-68
2022/09/26 11:32:04;;;;;;;5.90;4.18;;;11.40;99.90;;;;;;4962363;28;20150;-67
2022/09/26 11:34:35;;;;;;;7.82;5.10;;;11.50;99.90;;;;;;4962814;28;20133;-67
2022/09/26 11:37:20;;;;;;;;;;;11.50;99.90;;;;;;4948886;28;20480;-67
2022/09/26 11:40:08;;;;;;;4.97;3.33;;;11.50;99.90;;;;;;4962962;28;19954;-67
2022/09/26 11:42:53;;;;;;;8.18;3.90;;;11.60;99.90;;;;;;4967016;28;20457;-67
2022/09/26 11:45:31;;;;;;;4.97;4.00;;;11.60;99.90;;;;;;4947980;28;20065;-66
2022/09/26 11:48:33;;;;;;;5.80;4.10;;;11.70;99.90;;;;;;4964423;28;20058;-68
2022/09/26 11:51:08;;;;;;;5.55;4.18;;;11.70;99.90;;;;;;4926369;28;20047;-68
2022/09/26 11:53:52;;;;;;;6.28;4.00;;;11.70;99.90;;;;;;4965229;28;20491;-66
2022/09/26 11:56:35;;;;;;;5.95;3.40;;;11.70;99.90;;;;;;4949349;28;20059;-67
2022/09/26 11:59:12;;;;;;;6.05;4.28;;;11.70;99.90;;;;;;4963161;28;20040;-66
2022/09/26 12:01:54;;;;;;;5.47;3.75;;;11.80;99.90;;;;;;4944694;28;20051;-66
2022/09/26 12:05:00;;;;;;;6.95;4.15;;;11.80;99.90;;;;;;4965019;28;20106;-66
2022/09/26 12:07:34;;;;;;;5.97;4.40;;;11.80;99.90;;;;;;4968282;28;20467;-66
2022/09/26 12:10:25;;;;;;;6.65;3.83;;;11.90;99.90;;;;;;4948910;28;20054;-66
2022/09/26 12:13:07;;;;;;;6.28;4.05;;;12.00;99.90;;;;;;4968774;28;20422;-66
2022/09/26 12:15:39;;;;;;;5.50;3.88;;;12.00;99.90;;;;;;4944663;28;20051;-66
2022/09/26 12:18:12;;;;;;;5.15;3.70;;;12.10;99.90;;;;;;4951039;28;20054;-66
2022/09/26 12:21:03;;;;;;;7.35;3.75;;;12.10;99.90;;;;;;4964287;28;20082;-67
2022/09/26 12:23:36;;;;;;;4.25;3.50;;;12.10;99.90;;;;;;4951272;28;20050;-66
2022/09/26 12:26:14;;;;;;;5.45;4.00;;;12.10;99.90;;;;;;4961871;28;20051;-66
2022/09/26 12:29:19;;;;;;;5.68;3.67;;;12.10;99.90;;;;;;4975000;28;20054;-66
2022/09/26 12:32:05;;;;;;;4.70;3.63;;;12.10;99.90;;;;;;4969522;28;20054;-67
2022/09/26 12:34:55;;;;;;;5.20;4.25;;;12.10;99.90;;;;;;4957853;28;20054;-67
2022/09/26 12:37:43;;;;;;;5.20;3.60;;;12.10;99.90;;;;;;4975123;28;20054;-68
2022/09/26 12:40:23;;;;;;;4.93;3.60;;;12.20;99.90;;;;;;4994997;28;20104;-67
2022/09/26 12:43:12;;;;;;;4.28;3.70;;;12.30;99.90;;;;;;4963660;28;20058;-67
2022/09/26 12:45:56;;;;;;;5.90;3.75;;;12.40;99.90;;;;;;4975290;28;20129;-66
2022/09/26 12:48:45;;;;;;;6.10;3.65;;;12.40;99.90;;;;;;4958379;28;20063;-67
2022/09/26 12:51:21;;;;;;;4.53;3.22;;;12.40;99.90;;;;;;4956863;28;20054;-67
2022/09/26 12:54:32;;;;;;;5.13;3.90;;;12.50;99.90;;;;;;4958072;28;20043;-67
2022/09/26 12:57:06;;;;;;;5.28;3.75;;;12.40;99.90;;;;;;4940789;28;20162;-67
2022/09/26 12:59:57;;;;;;;5.45;3.88;;;12.50;99.90;;;;;;4966558;28;20058;-67
2022/09/26 13:03:11;;;;;;;5.70;3.75;;;12.70;99.90;;;;;;4969760;28;20051;-67
2022/09/26 13:06:01;;;;;;;7.32;3.60;;;12.90;99.90;;;;;;4904942;29;20056;-67
2022/09/26 13:08:38;;;;;;;4.18;3.42;;;13.10;99.90;;;;;;4964153;28;20090;-67
2022/09/26 13:11:18;;;;;;;7.22;2.95;;;13.30;99.90;;;;;;4949642;28;20466;-67
2022/09/26 13:14:14;;;;;;;6.82;3.33;;;13.40;99.90;;;;;;4954701;28;20396;-67
2022/09/26 13:16:54;;;;;;;4.55;2.85;;;13.30;99.90;;;;;;4961552;28;20464;-68
2022/09/26 13:19:27;;;;;;;4.68;2.95;;;13.30;99.90;;;;;;4950445;28;20042;-67
2022/09/26 13:22:01;;;;;;;4.38;3.13;;;13.20;99.90;;;;;;4969802;28;20470;-66
2022/09/26 13:24:34;;;;;;;3.45;2.63;;;13.20;99.90;;;;;;4950705;28;20447;-68
2022/09/26 13:27:11;;;;;;;4.43;2.67;;;13.20;99.90;;;;;;4953529;28;20050;-67
2022/09/26 13:29:40;;;;;;;4.38;2.55;;;13.20;99.90;;;;;;4950741;28;20506;-68
2022/09/26 13:32:19;;;;;;;3.33;2.70;;;13.30;99.90;;;;;;4947871;28;20074;-67
2022/09/26 13:34:52;;;;;;;4.75;3.25;;;13.30;99.90;;;;;;4949368;28;20526;-67